Time;durP1;ratioP1;P1;durP2;ratioP2;P2;SDS_P1;SDS_P2;PMS_P1;PMS_P2;Temp;Humidity;BMP_temperature;BMP_pressure;BME280_temperature;BME280_humidity;BME280_pressure;Samples;Min_cycle;Max_cycle;Signal;HPM_P1;HPM_P2
2021/01/09 00:00:39;;;;;;;25.20;11.27;;;;;;;-0.10;87.43;99015.50;5067871;28;20051;-71
2021/01/09 00:03:04;;;;;;;22.65;11.20;;;;;;;-0.08;87.25;98994.91;5069021;28;20530;-71
2021/01/09 00:05:30;;;;;;;22.45;11.25;;;;;;;-0.08;87.37;99006.41;5061653;28;20037;-72
2021/01/09 00:07:55;;;;;;;20.60;9.90;;;;;;;-0.08;87.76;98989.59;5060025;28;20067;-70
2021/01/09 00:10:20;;;;;;;20.80;10.77;;;;;;;-0.12;88.27;98991.69;5071661;28;20031;-72
2021/01/09 00:12:45;;;;;;;20.35;10.25;;;;;;;-0.14;87.63;98984.81;5071278;28;20032;-72
2021/01/09 00:15:11;;;;;;;23.92;10.52;;;;;;;-0.15;88.24;98983.13;5068833;28;20028;-72
2021/01/09 00:17:37;;;;;;;21.63;10.43;;;;;;;-0.06;87.71;98984.97;5053099;28;20033;-72
2021/01/09 00:20:15;;;;;;;21.67;10.55;;;;;;;0.03;87.69;99004.63;5067435;28;20091;-72
2021/01/09 00:22:41;;;;;;;21.08;10.45;;;;;;;-0.03;87.72;98995.34;5072846;28;20111;-72
2021/01/09 00:25:07;;;;;;;22.23;10.52;;;;;;;0.09;87.74;99009.44;5072177;28;20158;-72
2021/01/09 00:27:33;;;;;;;24.63;10.88;;;;;;;0.02;87.37;98981.66;5073318;28;20020;-72
2021/01/09 00:29:58;;;;;;;20.08;10.68;;;;;;;0.02;87.93;98987.00;5072880;28;20036;-72
2021/01/09 00:32:24;;;;;;;21.55;10.60;;;;;;;-0.07;88.40;98978.00;5056192;28;20039;-72
2021/01/09 00:34:49;;;;;;;23.60;9.98;;;;;;;-0.02;88.33;98997.06;5075870;28;20113;-72
2021/01/09 00:37:16;;;;;;;22.17;10.68;;;;;;;-0.04;88.19;98993.69;5064649;28;20071;-72
2021/01/09 00:39:41;;;;;;;22.33;10.88;;;;;;;-0.08;88.63;98990.44;5071963;28;20039;-72
2021/01/09 00:42:06;;;;;;;25.27;10.20;;;;;;;-0.67;88.67;98898.03;5076114;28;20033;-72
2021/01/09 00:44:32;;;;;;;20.05;10.38;;;;;;;-0.08;88.86;99001.09;5076092;28;20089;-72
2021/01/09 00:46:58;;;;;;;23.75;10.82;;;;;;;-0.08;89.03;99003.75;5075373;28;20470;-72
2021/01/09 00:49:24;;;;;;;23.98;11.80;;;;;;;-0.07;88.82;99009.91;5070734;28;20111;-72
2021/01/09 00:51:50;;;;;;;23.00;10.73;;;;;;;-0.14;88.35;98998.09;5075875;28;20078;-72
2021/01/09 00:54:15;;;;;;;20.63;10.27;;;;;;;-0.06;88.38;99009.75;5075630;28;20033;-73
2021/01/09 00:56:41;;;;;;;21.05;11.10;;;;;;;-0.04;87.91;99010.47;5074144;28;20038;-73
2021/01/09 00:59:06;;;;;;;23.40;11.20;;;;;;;-0.08;88.09;99009.06;5075352;28;22391;-72
2021/01/09 01:01:32;;;;;;;23.55;10.68;;;;;;;-0.16;88.29;98994.72;5075800;28;20074;-72
2021/01/09 01:03:58;;;;;;;21.58;10.65;;;;;;;0.01;88.45;99019.91;5075228;28;20108;-73
2021/01/09 01:06:24;;;;;;;22.48;10.30;;;;;;;-0.07;88.59;99008.09;5064636;28;20057;-73
2021/01/09 01:08:50;;;;;;;18.38;9.13;;;;;;;0.00;88.53;99024.38;5062229;28;20033;-73
2021/01/09 01:11:23;;;;;;;20.83;9.88;;;;;;;-0.08;88.48;99014.38;5060871;28;20040;-73
2021/01/09 01:13:48;;;;;;;21.23;9.38;;;;;;;-0.11;88.43;99003.97;5069552;28;20115;-73
2021/01/09 01:16:13;;;;;;;19.92;9.93;;;;;;;0.06;88.75;99034.47;5073765;28;20127;-72
2021/01/09 01:18:39;;;;;;;22.35;10.70;;;;;;;0.07;87.97;99032.66;5075353;28;20028;-73
2021/01/09 01:21:05;;;;;;;21.73;10.80;;;;;;;0.04;88.02;99030.25;5075385;28;20169;-73
2021/01/09 01:23:30;;;;;;;17.80;9.82;;;;;;;0.09;87.82;99046.69;5074796;28;20044;-72
2021/01/09 01:25:56;;;;;;;21.00;9.77;;;;;;;0.01;87.71;99034.03;5069120;28;20474;-72
2021/01/09 01:28:21;;;;;;;21.52;9.70;;;;;;;-0.06;87.77;99024.88;5068780;28;20040;-74
2021/01/09 01:30:49;;;;;;;20.63;9.93;;;;;;;0.07;87.92;99049.44;5059501;28;20041;-72
2021/01/09 01:33:15;;;;;;;22.77;10.32;;;;;;;0.08;88.05;99056.47;5074060;28;20036;-73
2021/01/09 01:35:41;;;;;;;19.42;10.02;;;;;;;0.05;88.19;99045.25;5074533;28;20063;-72
2021/01/09 01:38:06;;;;;;;21.77;9.15;;;;;;;0.12;87.45;99044.59;5073966;28;20186;-72
2021/01/09 01:40:31;;;;;;;20.80;10.75;;;;;;;0.09;87.15;99033.38;5074114;28;20030;-72
2021/01/09 01:42:57;;;;;;;20.45;10.25;;;;;;;0.05;86.96;99037.25;5073358;28;20051;-72
2021/01/09 01:45:22;;;;;;;22.83;10.77;;;;;;;0.05;87.53;99035.44;5074322;28;20078;-72
2021/01/09 01:47:47;;;;;;;28.05;11.55;;;;;;;0.12;88.12;99046.41;5074170;28;20021;-73
2021/01/09 01:50:14;;;;;;;19.98;10.02;;;;;;;0.05;87.97;99035.44;5073929;28;20108;-73
2021/01/09 01:52:39;;;;;;;16.52;8.73;;;;;;;0.08;88.45;99037.00;5073931;28;20027;-73
2021/01/09 01:55:06;;;;;;;19.67;9.98;;;;;;;0.05;88.14;99027.47;5074045;28;20032;-73
2021/01/09 01:57:32;;;;;;;20.40;10.40;;;;;;;0.04;88.61;99022.28;5072958;28;20058;-73
2021/01/09 01:59:57;;;;;;;20.50;10.32;;;;;;;0.13;88.66;99042.75;5073481;28;20041;-72
2021/01/09 02:02:22;;;;;;;19.95;9.65;;;;;;;0.11;88.63;99029.59;5070628;28;20028;-73
2021/01/09 02:04:57;;;;;;;19.52;10.63;;;;;;;0.02;88.45;99025.06;5073596;28;20036;-73
2021/01/09 02:07:28;;;;;;;21.23;9.98;;;;;;;-0.04;87.98;99017.63;5072663;28;20025;-73
2021/01/09 02:09:56;;;;;;;22.63;10.52;;;;;;;0.12;87.61;99036.59;5053661;28;20032;-73
2021/01/09 02:12:33;;;;;;;20.75;10.13;;;;;;;0.19;87.39;99029.78;5069358;28;20028;-72
2021/01/09 02:15:01;;;;;;;22.02;10.63;;;;;;;0.18;87.58;99036.09;5053588;28;20096;-73
2021/01/09 02:17:28;;;;;;;20.95;10.80;;;;;;;0.08;87.85;99018.38;5054077;28;20495;-73
2021/01/09 02:19:58;;;;;;;23.33;10.85;;;;;;;0.10;87.98;99024.41;5063677;28;20044;-73
2021/01/09 02:22:25;;;;;;;21.23;10.68;;;;;;;0.14;88.01;99039.16;5067242;28;20024;-72
2021/01/09 02:24:50;;;;;;;21.30;11.10;;;;;;;0.07;88.13;99028.16;5069313;28;20040;-74
2021/01/09 02:27:16;;;;;;;22.25;11.38;;;;;;;0.03;88.12;99026.75;5072400;28;20025;-73
2021/01/09 02:29:47;;;;;;;24.63;10.88;;;;;;;-0.03;88.43;99013.97;5073670;28;20040;-74
2021/01/09 02:32:17;;;;;;;22.67;11.35;;;;;;;0.07;88.92;99038.81;5064327;28;20043;-72
2021/01/09 02:35:02;;;;;;;24.00;12.07;;;;;;;-0.08;88.53;99019.72;5074191;28;20055;-73
2021/01/09 02:37:28;;;;;;;24.58;11.70;;;;;;;-0.04;88.71;99030.91;5073570;28;20440;-73
2021/01/09 02:39:54;;;;;;;25.20;12.00;;;;;;;0.01;88.65;99043.81;5073604;28;20043;-73
2021/01/09 02:42:20;;;;;;;23.38;11.43;;;;;;;0.01;88.59;99038.50;5073092;28;20043;-73
2021/01/09 02:44:50;;;;;;;22.67;11.93;;;;;;;0.04;88.75;99048.88;5072472;28;20155;-73
2021/01/09 02:47:16;;;;;;;25.33;12.23;;;;;;;0.07;88.71;99037.97;5072303;28;20095;-73
2021/01/09 02:49:41;;;;;;;27.25;12.07;;;;;;;0.07;88.72;99048.63;5072655;28;20117;-73
2021/01/09 02:52:07;;;;;;;24.02;12.25;;;;;;;0.08;88.32;99048.50;5073101;28;20040;-73
2021/01/09 02:54:32;;;;;;;21.75;11.32;;;;;;;0.15;87.80;99041.66;5072411;28;20040;-73
2021/01/09 02:56:57;;;;;;;25.75;12.05;;;;;;;0.14;87.98;99041.81;5065401;28;20033;-72
2021/01/09 02:59:22;;;;;;;23.73;11.98;;;;;;;-0.09;87.90;99015.34;5055882;28;20020;-73
2021/01/09 03:01:49;;;;;;;24.40;11.50;;;;;;;0.05;88.33;99032.78;5072961;28;20032;-74
2021/01/09 03:04:14;;;;;;;21.90;10.65;;;;;;;0.10;87.38;99038.53;5071493;28;20107;-73
2021/01/09 03:06:40;;;;;;;23.83;11.50;;;;;;;-0.02;88.13;99032.47;5072770;28;20103;-72
2021/01/09 03:09:05;;;;;;;25.33;12.38;;;;;;;-0.05;88.17;99039.88;5070748;28;20529;-73
2021/01/09 03:11:30;;;;;;;22.27;10.88;;;;;;;0.01;88.53;99042.00;5072341;28;20020;-73
2021/01/09 03:13:55;;;;;;;22.30;10.75;;;;;;;-0.05;89.11;99034.56;5072480;28;20043;-73
2021/01/09 03:16:21;;;;;;;23.20;10.57;;;;;;;-0.61;89.46;98968.41;5072431;28;20032;-72
2021/01/09 03:18:46;;;;;;;24.88;11.55;;;;;;;-0.09;89.58;99047.25;5065202;28;20074;-72
2021/01/09 03:21:11;;;;;;;24.20;11.40;;;;;;;-0.06;89.37;99054.97;5071788;28;20037;-72
2021/01/09 03:23:36;;;;;;;23.20;10.25;;;;;;;-0.15;89.11;99031.81;5071510;28;20040;-73
2021/01/09 03:26:02;;;;;;;25.60;11.52;;;;;;;-0.05;89.24;99056.66;5072351;28;20509;-71
2021/01/09 03:28:27;;;;;;;27.10;11.90;;;;;;;-0.06;88.94;99052.31;5071719;28;20089;-73
2021/01/09 03:30:53;;;;;;;23.92;12.32;;;;;;;-0.16;89.00;99040.75;5072229;28;20043;-74
2021/01/09 03:33:18;;;;;;;24.88;10.88;;;;;;;-0.22;89.04;99030.66;5072041;28;20119;-73
2021/01/09 03:35:44;;;;;;;26.73;11.98;;;;;;;-0.03;89.02;99062.72;5072106;28;20398;-73
2021/01/09 03:38:09;;;;;;;22.83;11.23;;;;;;;-0.02;89.41;99060.88;5072315;28;20774;-72
2021/01/09 03:40:35;;;;;;;22.83;11.43;;;;;;;-0.02;88.91;99056.41;5072121;28;20066;-74
2021/01/09 03:43:00;;;;;;;23.75;11.60;;;;;;;-0.07;88.89;99058.63;5069607;28;20039;-72
2021/01/09 03:45:25;;;;;;;22.63;11.60;;;;;;;-0.01;89.22;99065.22;5051943;28;20104;-72
2021/01/09 03:47:51;;;;;;;23.63;11.73;;;;;;;-0.05;89.32;99061.16;5052383;28;20025;-73
2021/01/09 03:50:16;;;;;;;27.15;12.98;;;;;;;0.01;88.18;99039.34;5065700;28;20085;-71
2021/01/09 03:52:41;;;;;;;20.95;10.80;;;;;;;0.17;87.81;99065.47;5061417;28;20029;-72
2021/01/09 03:55:07;;;;;;;22.23;10.90;;;;;;;0.10;87.20;99059.00;5058201;28;20028;-72
2021/01/09 03:57:33;;;;;;;24.77;11.05;;;;;;;0.16;88.08;99075.28;5072011;28;20123;-72
2021/01/09 03:59:58;;;;;;;24.75;12.13;;;;;;;0.15;87.72;99073.59;5054561;28;20047;-72
2021/01/09 04:02:23;;;;;;;22.13;10.73;;;;;;;0.09;87.79;99052.84;5070535;28;20024;-73
2021/01/09 04:04:48;;;;;;;24.73;10.82;;;;;;;0.17;87.97;99068.16;5070401;28;20433;-72
2021/01/09 04:07:14;;;;;;;23.35;11.05;;;;;;;0.10;88.07;99062.50;5070320;28;20016;-72
2021/01/09 04:09:39;;;;;;;24.13;11.68;;;;;;;0.13;88.63;99066.72;5075409;28;20032;-72
2021/01/09 04:12:05;;;;;;;21.67;11.43;;;;;;;0.11;89.02;99072.19;5074181;28;20115;-73
2021/01/09 04:14:30;;;;;;;23.48;11.27;;;;;;;0.09;89.12;99068.78;5075794;28;20127;-73
2021/01/09 04:16:55;;;;;;;26.23;11.50;;;;;;;-0.06;89.31;99044.31;5075379;28;20028;-72
2021/01/09 04:19:21;;;;;;;24.58;11.30;;;;;;;0.03;89.02;99064.00;5075141;28;20051;-72
2021/01/09 04:21:52;;;;;;;24.30;11.27;;;;;;;0.07;89.37;99070.72;5075253;28;20056;-72
2021/01/09 04:24:20;;;;;;;24.70;12.00;;;;;;;0.03;89.55;99069.31;5076021;28;20039;-72
2021/01/09 04:26:51;;;;;;;22.80;11.13;;;;;;;-0.11;89.16;99046.53;5075467;28;20020;-72
2021/01/09 04:29:17;;;;;;;23.63;11.35;;;;;;;-0.14;88.79;99045.97;5072388;28;20040;-74
2021/01/09 04:31:42;;;;;;;25.63;11.30;;;;;;;0.01;88.91;99078.41;5074003;28;20024;-73
2021/01/09 04:34:07;;;;;;;21.85;11.35;;;;;;;0.00;89.07;99074.91;5075491;28;20032;-72
2021/01/09 04:36:33;;;;;;;26.48;11.85;;;;;;;-0.03;89.07;99070.69;5075365;28;20101;-73
2021/01/09 04:38:58;;;;;;;27.83;12.43;;;;;;;0.06;89.23;99077.03;5075088;28;20029;-72
2021/01/09 04:41:24;;;;;;;24.85;11.82;;;;;;;0.02;88.99;99072.94;5075244;28;20035;-72
2021/01/09 04:43:50;;;;;;;21.80;11.52;;;;;;;0.06;88.96;99074.38;5074200;28;20028;-72
2021/01/09 04:46:16;;;;;;;24.77;11.63;;;;;;;0.03;88.82;99066.66;5074914;28;20040;-72
2021/01/09 04:48:44;;;;;;;23.08;11.38;;;;;;;0.03;88.94;99068.47;5070616;28;20108;-72
2021/01/09 04:51:10;;;;;;;24.00;11.43;;;;;;;0.12;89.42;99083.66;5070830;28;20039;-73
2021/01/09 04:53:39;;;;;;;20.80;10.70;;;;;;;0.00;89.43;99061.63;5077791;28;20440;-72
2021/01/09 04:56:05;;;;;;;24.10;11.68;;;;;;;0.05;89.08;99079.81;5077916;28;20032;-71
2021/01/09 04:58:31;;;;;;;24.80;10.90;;;;;;;0.09;89.14;99078.59;5065853;28;20048;-73
2021/01/09 05:00:57;;;;;;;22.45;11.35;;;;;;;0.09;88.96;99083.91;5071845;28;20106;-73
2021/01/09 05:03:23;;;;;;;24.85;12.20;;;;;;;0.03;88.90;99074.66;5077310;28;20086;-73
2021/01/09 05:05:49;;;;;;;28.25;11.98;;;;;;;0.02;89.15;99078.25;5069174;28;20629;-71
2021/01/09 05:08:14;;;;;;;27.95;11.88;;;;;;;0.06;89.36;99082.38;5066006;28;20020;-72
2021/01/09 05:10:40;;;;;;;22.20;11.05;;;;;;;0.09;89.19;99082.09;5075065;28;20028;-73
2021/01/09 05:13:06;;;;;;;25.73;11.93;;;;;;;0.12;89.20;99079.16;5075011;28;20047;-73
2021/01/09 05:15:37;;;;;;;27.42;11.70;;;;;;;0.08;89.47;99091.06;5074435;28;20021;-72
2021/01/09 05:18:03;;;;;;;24.55;11.30;;;;;;;0.04;89.50;99089.63;5073381;28;20033;-72
2021/01/09 05:20:28;;;;;;;23.90;11.82;;;;;;;0.10;89.58;99091.75;5074104;28;20052;-73
2021/01/09 05:22:54;;;;;;;22.83;11.75;;;;;;;0.08;89.25;99092.84;5074593;28;20075;-74
2021/01/09 05:25:24;;;;;;;25.65;12.45;;;;;;;0.09;89.29;99099.88;5073791;28;20042;-75
2021/01/09 05:27:51;;;;;;;24.50;11.93;;;;;;;0.06;89.57;99089.50;5071013;28;20031;-72
2021/01/09 05:30:17;;;;;;;28.70;12.43;;;;;;;0.03;89.52;99093.25;5073090;28;20024;-76
2021/01/09 05:32:43;;;;;;;27.08;12.60;;;;;;;-0.09;89.80;99081.81;5077475;28;20073;-76
2021/01/09 05:35:12;;;;;;;25.80;12.43;;;;;;;-0.03;90.14;99093.75;5074165;28;20025;-70
2021/01/09 05:37:37;;;;;;;29.58;12.18;;;;;;;-0.03;90.37;99109.72;5074455;28;20028;-68
2021/01/09 05:40:04;;;;;;;28.10;12.23;;;;;;;-0.02;89.79;99098.13;5073918;28;20059;-70
2021/01/09 05:42:29;;;;;;;24.70;12.45;;;;;;;-0.15;89.87;99093.00;5073846;28;20024;-70
2021/01/09 05:44:57;;;;;;;26.10;12.57;;;;;;;0.00;89.79;99104.16;5073207;28;20165;-70
2021/01/09 05:47:25;;;;;;;26.00;12.52;;;;;;;-0.02;89.73;99100.78;5073165;28;20033;-70
2021/01/09 05:49:52;;;;;;;24.95;11.48;;;;;;;-0.11;89.81;99098.88;5060153;28;20564;-71
2021/01/09 05:52:17;;;;;;;26.55;13.43;;;;;;;-0.16;90.06;99088.63;5073199;28;20020;-71
2021/01/09 05:54:43;;;;;;;27.13;13.27;;;;;;;-0.05;90.29;99109.88;5072935;28;20512;-71
2021/01/09 05:57:15;;;;;;;26.38;12.77;;;;;;;-0.08;90.27;99109.25;5072626;28;20044;-71
2021/01/09 05:59:43;;;;;;;25.65;12.13;;;;;;;-0.11;90.40;99082.94;5071673;28;20109;-71
2021/01/09 06:02:09;;;;;;;27.92;12.75;;;;;;;0.03;90.23;99106.56;5074089;28;20032;-71
2021/01/09 06:04:39;;;;;;;25.98;11.50;;;;;;;0.04;90.32;99110.91;5072967;28;20032;-71
2021/01/09 06:07:10;;;;;;;27.75;12.45;;;;;;;0.06;90.40;99116.94;5073551;28;20024;-72
2021/01/09 06:09:44;;;;;;;22.50;11.73;;;;;;;0.07;90.13;99109.81;5068453;28;20041;-71
2021/01/09 06:12:12;;;;;;;23.45;12.07;;;;;;;-0.06;90.00;99096.69;5064306;28;20081;-72
2021/01/09 06:14:43;;;;;;;25.73;12.43;;;;;;;0.02;90.38;99104.84;5062476;28;20577;-72
2021/01/09 06:17:08;;;;;;;25.92;11.93;;;;;;;0.11;90.21;99120.06;5070448;28;20020;-70
2021/01/09 06:19:35;;;;;;;23.13;11.30;;;;;;;0.06;90.04;99110.78;5068941;28;20020;-72
2021/01/09 06:22:01;;;;;;;24.77;12.05;;;;;;;0.04;89.89;99110.91;5065948;28;20021;-71
2021/01/09 06:24:26;;;;;;;25.58;12.07;;;;;;;0.05;89.81;99123.22;5070488;28;20070;-72
2021/01/09 06:26:52;;;;;;;31.77;12.35;;;;;;;0.02;89.99;99127.97;5069675;28;20032;-70
2021/01/09 06:29:23;;;;;;;26.33;12.32;;;;;;;0.00;90.40;99128.09;5068556;28;20119;-71
2021/01/09 06:31:56;;;;;;;25.77;12.85;;;;;;;-0.03;90.61;99123.88;5071743;28;20039;-70
2021/01/09 06:34:24;;;;;;;28.58;13.55;;;;;;;-0.05;90.77;99125.00;5072025;28;20516;-70
2021/01/09 06:36:54;;;;;;;26.85;12.95;;;;;;;-0.06;90.46;99129.44;5053776;28;20521;-72
2021/01/09 06:39:19;;;;;;;;;;;;;;;-0.03;90.76;99128.34;5073717;28;20036;-75
2021/01/09 06:41:46;;;;;;;26.55;11.77;;;;;;;-0.04;90.65;99131.97;5067868;28;20839;-74
2021/01/09 06:44:13;;;;;;;29.45;12.32;;;;;;;-0.03;90.35;99138.97;5077967;28;20103;-74
2021/01/09 06:46:41;;;;;;;31.35;13.15;;;;;;;-0.11;90.71;99130.78;5083325;28;20381;-72
2021/01/09 06:49:15;;;;;;;26.63;12.18;;;;;;;-0.15;90.69;99127.56;5085641;28;20036;-80
2021/01/09 06:51:42;;;;;;;30.20;13.15;;;;;;;-0.04;90.37;99129.31;5065983;28;20056;-78
2021/01/09 06:54:19;;;;;;;23.60;11.95;;;;;;;-0.12;90.38;99143.25;5068961;28;20166;-73
2021/01/09 06:56:46;;;;;;;27.33;12.63;;;;;;;-0.24;90.75;99118.53;5072856;28;20035;-74
2021/01/09 06:59:35;;;;;;;29.33;13.48;;;;;;;-0.20;90.68;99132.41;5069162;28;20588;-71
2021/01/09 07:02:26;;;;;;;28.98;12.80;;;;;;;-0.22;90.48;99139.66;5071036;28;20027;-70
2021/01/09 07:04:54;;;;;;;23.50;11.77;;;;;;;-0.25;91.00;99140.75;5057115;28;20032;-71
2021/01/09 07:07:53;;;;;;;32.08;13.40;;;;;;;-0.26;90.71;99148.88;5072920;28;20052;-71
2021/01/09 07:10:26;;;;;;;27.30;12.98;;;;;;;-0.33;90.79;99140.56;5058571;28;20032;-70
2021/01/09 07:13:02;;;;;;;26.60;12.32;;;;;;;-0.35;91.20;99147.81;5068615;28;20496;-70
2021/01/09 07:15:28;;;;;;;29.45;13.25;;;;;;;-0.48;91.35;99129.34;5069746;28;20465;-73
2021/01/09 07:17:59;;;;;;;28.30;11.55;;;;;;;-0.33;91.29;99153.00;5069802;28;20104;-70
2021/01/09 07:20:32;;;;;;;31.77;14.18;;;;;;;-0.37;91.10;99154.22;5067305;28;20049;-70
2021/01/09 07:23:01;;;;;;;34.33;13.70;;;;;;;-0.44;91.33;99140.59;5071491;28;20122;-71
2021/01/09 07:25:31;;;;;;;;;;;;;;;-0.36;90.91;99151.44;5072294;28;20036;-70
2021/01/09 07:27:59;;;;;;;27.02;12.15;;;;;;;-0.31;90.88;99151.91;5070845;28;20481;-70
2021/01/09 07:30:26;;;;;;;35.00;14.05;;;;;;;-0.30;90.45;99158.91;5069821;28;20028;-71
2021/01/09 07:32:53;;;;;;;30.00;13.52;;;;;;;-0.25;90.25;99155.88;5061355;28;20102;-71
2021/01/09 07:35:21;;;;;;;36.15;14.68;;;;;;;-0.26;90.48;99159.53;5057650;28;20540;-71
2021/01/09 07:37:50;;;;;;;27.35;12.48;;;;;;;-0.30;90.19;99150.94;5058341;28;20258;-69
2021/01/09 07:40:20;;;;;;;39.47;15.35;;;;;;;-0.26;89.77;99160.34;5062943;28;20061;-71
2021/01/09 07:42:47;;;;;;;36.60;15.25;;;;;;;-0.28;90.06;99166.75;5056172;28;20043;-70
2021/01/09 07:45:16;;;;;;;29.40;14.00;;;;;;;-0.28;89.79;99167.59;5056243;28;20104;-70
2021/01/09 07:47:43;;;;;;;33.67;14.80;;;;;;;-0.33;89.86;99168.97;5067449;28;20467;-71
2021/01/09 07:50:10;;;;;;;37.50;16.15;;;;;;;-0.30;90.30;99172.19;5059437;28;20115;-71
2021/01/09 07:52:36;;;;;;;37.20;14.93;;;;;;;-0.33;89.79;99160.97;5064003;28;20024;-69
2021/01/09 07:55:04;;;;;;;35.63;15.38;;;;;;;-0.20;90.16;99174.13;5054710;28;20502;-70
2021/01/09 07:57:30;;;;;;;31.25;13.77;;;;;;;-0.16;89.72;99168.41;5064213;28;20479;-70
2021/01/09 07:59:56;;;;;;;33.17;14.75;;;;;;;-0.13;89.33;99172.63;5061272;28;20088;-71
2021/01/09 08:02:22;;;;;;;32.50;13.95;;;;;;;-0.04;88.87;99178.03;5066359;28;20139;-71
2021/01/09 08:04:47;;;;;;;35.88;15.10;;;;;;;-0.05;89.15;99172.84;5059814;28;20071;-71
2021/01/09 08:07:16;;;;;;;35.97;15.98;;;;;;;0.00;88.49;99191.94;5058558;28;20027;-71
2021/01/09 08:09:41;;;;;;;35.08;14.98;;;;;;;0.00;88.66;99191.94;5062863;28;20028;-72
2021/01/09 08:12:07;;;;;;;31.30;14.40;;;;;;;-0.03;88.27;99195.69;5072305;28;20069;-72
2021/01/09 08:14:32;;;;;;;33.58;15.30;;;;;;;-0.04;88.38;99204.63;5070445;28;20416;-68
2021/01/09 08:17:08;;;;;;;37.05;15.13;;;;;;;-0.15;88.26;99177.25;5072513;28;20046;-71
2021/01/09 08:19:34;;;;;;;34.35;15.65;;;;;;;-0.07;88.89;99194.25;5068674;28;20035;-75
2021/01/09 08:22:03;;;;;;;31.92;14.35;;;;;;;0.13;87.45;99208.56;5076682;28;20025;-73
2021/01/09 08:24:28;;;;;;;35.53;13.85;;;;;;;0.14;87.10;99204.09;5068352;28;20224;-75
2021/01/09 08:26:56;;;;;;;33.42;14.32;;;;;;;0.12;87.29;99193.56;5061602;28;20051;-75
2021/01/09 08:29:22;;;;;;;31.63;14.60;;;;;;;0.18;86.82;99211.69;5072411;28;20047;-73
2021/01/09 08:31:49;;;;;;;29.67;13.38;;;;;;;0.26;87.06;99208.38;5072434;28;20075;-73
2021/01/09 08:34:15;;;;;;;32.50;14.43;;;;;;;0.28;86.83;99221.56;5071029;28;20028;-75
2021/01/09 08:36:43;;;;;;;29.92;14.20;;;;;;;0.25;86.73;99230.66;5072445;28;20086;-74
2021/01/09 08:39:08;;;;;;;22.60;10.30;;;;;;;0.17;86.37;99207.34;5059714;28;20025;-75
2021/01/09 08:41:37;;;;;;;33.53;14.27;;;;;;;0.29;86.31;99229.44;5070161;28;20036;-73
2021/01/09 08:44:10;;;;;;;29.27;12.93;;;;;;;0.34;85.56;99227.25;5060905;28;20699;-72
2021/01/09 08:46:37;;;;;;;28.60;12.90;;;;;;;0.29;85.82;99213.47;5072546;28;20470;-71
2021/01/09 08:49:04;;;;;;;28.50;13.50;;;;;;;0.49;85.28;99227.75;5072472;28;20029;-74
2021/01/09 08:51:31;;;;;;;32.55;14.40;;;;;;;0.53;84.53;99220.38;5065574;28;20379;-72
2021/01/09 08:54:06;;;;;;;28.80;13.43;;;;;;;0.68;84.00;99227.03;5072467;28;20035;-75
2021/01/09 08:56:33;;;;;;;32.15;13.40;;;;;;;0.98;83.14;99228.91;5054769;28;20056;-74
2021/01/09 08:59:08;;;;;;;33.08;14.27;;;;;;;1.25;82.70;99215.00;5075825;28;20505;-75
2021/01/09 09:01:47;;;;;;;30.65;13.27;;;;;;;1.49;80.53;99220.03;5059691;28;20089;-74
2021/01/09 09:04:17;;;;;;;28.20;13.20;;;;;;;1.84;79.92;99244.56;5076056;28;20467;-73
2021/01/09 09:06:43;;;;;;;;;;;;;;;1.95;79.11;99233.75;5065423;28;20055;-77
2021/01/09 09:09:16;;;;;;;24.83;12.30;;;;;;;2.16;78.57;99233.66;5059820;28;20262;-71
2021/01/09 09:11:49;;;;;;;25.77;12.63;;;;;;;2.18;77.99;99229.84;5065444;28;20028;-73
2021/01/09 09:14:14;;;;;;;25.95;12.35;;;;;;;2.26;77.53;99245.16;5074348;28;20035;-73
2021/01/09 09:16:40;;;;;;;29.48;13.25;;;;;;;2.31;77.71;99234.91;5074132;28;20028;-74
2021/01/09 09:19:16;;;;;;;24.85;12.73;;;;;;;2.88;75.90;99242.19;5074052;28;20028;-73
2021/01/09 09:21:58;;;;;;;25.10;12.98;;;;;;;4.61;70.61;99234.22;5072611;28;20035;-73
2021/01/09 09:24:42;;;;;;;26.48;13.80;;;;;;;8.15;62.23;99236.41;5074777;28;20025;-71
2021/01/09 09:27:27;;;;;;;24.45;12.90;;;;;;;10.49;56.18;99223.59;5072730;28;20071;-71
2021/01/09 09:30:25;;;;;;;23.70;13.45;;;;;;;11.37;51.35;99226.81;5074214;28;20425;-70
2021/01/09 09:32:50;;;;;;;23.77;13.30;;;;;;;10.88;51.14;99230.44;5066247;28;20075;-68
2021/01/09 09:35:22;;;;;;;22.20;12.55;;;;;;;11.10;50.25;99229.34;5073651;28;20632;-71
2021/01/09 09:37:48;;;;;;;19.40;11.55;;;;;;;12.24;47.48;99230.88;5072813;28;20494;-71
2021/01/09 09:40:28;;;;;;;19.33;12.65;;;;;;;11.92;47.71;99240.53;5074459;28;20138;-72
2021/01/09 09:42:54;;;;;;;20.00;12.63;;;;;;;11.47;48.50;99234.63;5072121;28;20410;-70
2021/01/09 09:45:20;;;;;;;16.13;10.90;;;;;;;10.62;50.02;99229.16;5073431;28;20035;-69
2021/01/09 09:47:48;;;;;;;14.05;10.23;;;;;;;11.33;48.75;99239.13;5064096;28;20016;-70
2021/01/09 09:50:21;;;;;;;16.35;10.60;;;;;;;11.36;48.42;99238.72;5080966;28;20028;-72
2021/01/09 09:53:00;;;;;;;16.27;11.30;;;;;;;11.80;47.97;99241.06;5072299;28;20102;-74
2021/01/09 09:55:25;;;;;;;;;;;;;;;12.91;44.97;99232.66;5070509;28;20043;-75
2021/01/09 09:58:08;;;;;;;14.65;9.70;;;;;;;14.07;42.70;99209.50;5067464;28;19917;-72
2021/01/09 10:00:42;;;;;;;12.60;8.40;;;;;;;12.75;44.28;99229.50;5069395;28;20037;-72
2021/01/09 10:03:07;;;;;;;11.13;7.75;;;;;;;12.82;44.15;99219.50;5067378;28;20106;-70
2021/01/09 10:05:33;;;;;;;10.02;6.90;;;;;;;13.93;42.02;99219.56;5067927;28;20024;-72
2021/01/09 10:08:14;;;;;;;9.88;7.10;;;;;;;13.48;41.59;99232.25;5069600;28;20024;-72
2021/01/09 10:10:49;;;;;;;9.07;6.57;;;;;;;14.61;41.49;99221.78;5065124;28;20032;-72
2021/01/09 10:13:26;;;;;;;9.75;7.05;;;;;;;15.33;38.34;99224.16;5063424;28;20016;-72
2021/01/09 10:15:52;;;;;;;9.77;6.70;;;;;;;15.80;38.08;99224.56;5070860;28;20040;-70
2021/01/09 10:18:17;;;;;;;8.15;6.05;;;;;;;16.09;37.69;99206.59;5071802;28;20427;-72
2021/01/09 10:20:42;;;;;;;8.82;6.38;;;;;;;14.44;40.00;99226.06;5077027;28;20032;-72
2021/01/09 10:23:08;;;;;;;8.98;6.70;;;;;;;12.10;43.95;99231.84;5068132;28;20024;-70
2021/01/09 10:25:33;;;;;;;8.27;6.18;;;;;;;11.90;44.72;99221.75;5068591;28;20036;-71
2021/01/09 10:27:58;;;;;;;8.82;6.15;;;;;;;11.26;44.68;99219.25;5069453;28;20417;-71
2021/01/09 10:30:24;;;;;;;8.85;6.32;;;;;;;8.89;51.11;99228.69;5084214;28;20055;-72
2021/01/09 10:32:49;;;;;;;9.45;5.57;;;;;;;7.33;54.05;99228.69;5074862;28;20078;-71
2021/01/09 10:35:14;;;;;;;8.35;5.93;;;;;;;6.52;55.58;99227.72;5065739;28;20025;-69
2021/01/09 10:37:40;;;;;;;10.05;6.93;;;;;;;5.27;59.96;99224.78;5058525;28;20120;-70
2021/01/09 10:40:06;;;;;;;13.63;7.53;;;;;;;5.19;61.39;99223.91;5049799;28;20039;-70
2021/01/09 10:42:31;;;;;;;10.90;7.13;;;;;;;5.09;62.53;99233.91;5068600;28;20124;-68
2021/01/09 10:44:56;;;;;;;12.07;7.30;;;;;;;4.58;63.72;99236.34;5068869;28;20024;-70
2021/01/09 10:47:22;;;;;;;12.90;8.00;;;;;;;4.39;64.84;99227.50;5070162;28;20016;-72
2021/01/09 10:49:47;;;;;;;10.63;5.78;;;;;;;4.36;62.98;99235.00;5070239;28;20117;-72
2021/01/09 10:52:12;;;;;;;12.75;7.07;;;;;;;4.13;65.02;99215.84;5066303;28;20070;-72
2021/01/09 10:54:37;;;;;;;15.68;7.63;;;;;;;4.15;65.60;99227.25;5055055;28;20616;-72
2021/01/09 10:57:03;;;;;;;10.93;6.25;;;;;;;3.91;64.38;99228.69;5065359;28;20048;-72
2021/01/09 10:59:28;;;;;;;14.32;7.88;;;;;;;3.83;65.69;99238.47;5070230;28;20043;-72
2021/01/09 11:01:57;;;;;;;12.20;6.47;;;;;;;3.65;64.58;99200.97;5068453;28;20024;-72
2021/01/09 11:04:22;;;;;;;12.90;6.40;;;;;;;3.67;65.31;99226.56;5065123;28;20406;-72
2021/01/09 11:06:48;;;;;;;13.38;6.50;;;;;;;3.46;65.64;99239.34;5067729;28;20037;-71
2021/01/09 11:09:13;;;;;;;11.90;6.25;;;;;;;3.13;66.47;99227.34;5070212;28;20063;-71
2021/01/09 11:11:38;;;;;;;9.77;5.70;;;;;;;3.11;68.02;99245.38;5070213;28;20028;-73
2021/01/09 11:14:03;;;;;;;10.70;5.65;;;;;;;2.92;66.95;99225.72;5060274;28;20550;-72
2021/01/09 11:16:29;;;;;;;11.27;5.88;;;;;;;2.88;66.60;99232.31;5068707;28;20028;-73
2021/01/09 11:18:54;;;;;;;9.18;5.20;;;;;;;2.89;67.43;99228.69;5068712;28;20032;-72
2021/01/09 11:21:20;;;;;;;9.77;5.65;;;;;;;2.58;67.77;99236.03;5068757;28;20443;-72
2021/01/09 11:23:46;;;;;;;10.38;5.22;;;;;;;2.73;67.66;99247.97;5067925;28;20024;-73
2021/01/09 11:26:21;;;;;;;11.40;5.38;;;;;;;2.60;67.45;99242.09;5069376;28;20032;-73